Sublime, Texas
Current Conditions -  °F | °C
As of 12:15 AM on Thursday 29 Jan 2015 (Local Time) from K66R Reporting Station
Moderate Fog Moderate Fog  
Wind Chill: 58°   Ceiling: 300
Heat Index: 58°   Visibility: 0.5mi
Dew Point: 58°   Wind: 3mph
Humidity: 100%   Direction: 200°SSW
Pressure: 30.16"   Gusts: NA
Location:  29.48°N, 96.8°W
Report Text: K66R 290615Z AUTO 20003KT 1/2SM FG OVC003 15/15 A3016 RMK AO2 T01470147
Loading
Personal Weather Stations






























Interactive Weather Map New forecast layout! Learn more

10-Day Weather Forecast

Advertisements
Track Severe Weather on mobile